EFOUESNN

Guest
Details From EFOU - Oulu
To ESNN - Sundsvall Harnosand/midlanda
Flight Number -
Tags Generated
Created
Modified
Stats Distance 255 nm / 472 km
Max Altitude 0 ft / 0 m
Waypoints 3
Social Downloads 1
Likes 0
Share VATSIM

Download

Looking for another format? Having issues loading an existing format? Contact us
Advertisement - Login to hide

Notes

Generated

Route

EFOU SUN ESNN

ID Type Via Altitude Latitude Longitude Leg Dist Tot Dist Heading (true) Name
O EFOU APT - 0 ft / 0 m 64.93584˚ 25.33189˚ - 0 nm - -
SUN VOR - 0 ft / 0 m 62.52844˚ 17.44872˚ 254 nm 254 nm 239° / 232° SUNDSVALL VOR-DME
O ESNN APT - 0 ft / 0 m 62.53656˚ 17.43734˚ 0 nm 254 nm 327° / 327° -

Altitude Profile

Advertisement - Login to hide

Weather


0- 5 10 15 20 25 30 35+ Temperature / ° C

Clouds and Precipitation
Forecast for 2017-12-13 06:00 UTC. Updated 17 minutes ago

Ground ~20,000 ft ~40,000 ft Winds

EFOU

Details ICAO EFOU (OUL)
Name Oulu
Region Finland
Timezone Europe/Helsinki (UTC+2.0)
Stats Elevation 47 ft / 14 m (AMSL)
Location 64.930059° 25.354560°
Runways 1
Magnetic Variation 10.661° E

METAR

EFOU 130320Z AUTO 25006KT 6000 -SN BKN003/// BKN012/// OVC014/// M01/M02 Q0977

Decode

TAF

TAF EFOU 130234Z 1303/1403 24010KT 8000 -SN SCT004 BKN015 TEMPO 1303/1307 2000 -SN BKN004 PROB30 1303/1305 -FZDZ TEMPO 1307/1314 25018G28KT 2000 SN BKN010

Decode

Departure Runways

ID Width Length Bearing (true) Bearing (mag) Surface Threshold Offset Overrun Length
12 197 ft / 60 m 8,180 ft / 2,493 m 121.01° 110.35° Asphalt 0 ft / 0 m 200 ft / 61 m
30 197 ft / 60 m 8,180 ft / 2,493 m 301.05° 290.39° Asphalt 0 ft / 0 m 200 ft / 61 m

ESNN

Details ICAO ESNN (SDL)
Name Sundsvall Harnosand/Midlanda
Region Sweden
Timezone Unknown (UTC+0.0)
Stats Elevation 16 ft / 5 m (AMSL)
Location 62.527744° 17.444222°
Runways 1
Magnetic Variation 6.407° E

METAR

ESNN 130320Z AUTO 00000KT 9999 NCD M09/M10 Q0990 R16/79//35

Decode

TAF

Not found

Destination Runways

ID Width Length Bearing (true) Bearing (mag) Surface Threshold Offset Overrun Length
16 148 ft / 45 m 6,841 ft / 2,085 m 160.19° 153.78° Asphalt 492 ft / 150 m 0 ft / 0 m
34 148 ft / 45 m 6,841 ft / 2,085 m 340.20° 333.79° Asphalt 459 ft / 140 m 0 ft / 0 m

Approach Navaids

Runway Type Ident Frequency Range Bearing (true) Bearing (mag) Slope Elevation
16 Localiser NNN 108.70 MHz 18 nm / 33 km 160.19° 153.78° - 16 ft / 5 m (AMSL)
16 Glidescope NNN 108.70 MHz 10 nm / 19 km 160.19° 153.78° 3.25° 16 ft / 5 m (AMSL)
34 Localiser SNN 110.30 MHz 18 nm / 33 km 340.17° 333.76° - 16 ft / 5 m (AMSL)
34 Glidescope SNN 110.30 MHz 10 nm / 19 km 340.19° 333.78° 3.00° 16 ft / 5 m (AMSL)